Time;durP1;ratioP1;P1;durP2;ratioP2;P2;SDS_P1;SDS_P2;PMS_P1;PMS_P2;Temp;Humidity;BMP_temperature;BMP_pressure;BME280_temperature;BME280_humidity;BME280_pressure;Samples;Min_cycle;Max_cycle;Signal;HPM_P1;HPM_P2
2022/08/25 00:02:09;;;;;;;41.05;6.18;;;;;;;22.30;68.21;100336.81;5054531;28;20033;-85
2022/08/25 00:04:37;;;;;;;44.97;5.65;;;;;;;22.44;67.90;100359.25;5057528;28;20043;-86
2022/08/25 00:07:04;;;;;;;43.42;5.43;;;;;;;22.41;68.17;100357.84;5066160;28;20123;-87
2022/08/25 00:09:30;;;;;;;52.90;6.07;;;;;;;22.47;67.51;100359.56;5036622;28;20041;-86
2022/08/25 00:11:56;;;;;;;49.65;7.05;;;;;;;22.54;67.43;100345.72;5034482;28;20086;-87
2022/08/25 00:14:32;;;;;;;51.08;6.93;;;;;;;22.51;67.03;100344.31;5033219;28;20492;-87
2022/08/25 00:16:58;;;;;;;44.60;5.65;;;;;;;22.51;66.98;100341.56;5050753;28;20112;-87
2022/08/25 00:19:28;;;;;;;63.00;6.60;;;;;;;22.54;67.05;100332.84;5035964;28;20037;-87
2022/08/25 00:22:01;;;;;;;41.50;5.93;;;;;;;22.43;66.94;100314.59;5032431;28;20083;-89
2022/08/25 00:24:28;;;;;;;45.60;5.30;;;;;;;22.39;67.48;100307.94;5049338;28;20041;-88
2022/08/25 00:26:56;;;;;;;44.95;5.88;;;;;;;22.36;67.18;100293.91;5022359;28;20045;-88
2022/08/25 00:29:22;;;;;;;42.63;6.05;;;;;;;22.35;66.73;100279.38;5021115;28;20556;-88
2022/08/25 00:31:47;;;;;;;50.00;6.13;;;;;;;22.07;66.91;100253.69;5042853;28;20480;-88
2022/08/25 00:34:19;;;;;;;55.15;6.70;;;;;;;22.19;67.06;100250.06;5021447;28;20049;-87
2022/08/25 00:36:49;;;;;;;46.88;6.63;;;;;;;22.23;66.98;100251.25;5034769;28;20111;-87
2022/08/25 00:39:16;;;;;;;58.33;6.50;;;;;;;22.22;67.09;100260.53;5009369;28;20131;-88
2022/08/25 00:41:44;;;;;;;58.88;7.13;;;;;;;22.31;66.83;100256.31;5034252;28;20047;-89
2022/08/25 00:44:12;;;;;;;52.70;6.68;;;;;;;22.30;67.07;100268.34;5031873;28;20049;-89
2022/08/25 00:46:46;;;;;;;48.50;6.50;;;;;;;22.22;66.90;100257.78;5016346;28;20038;-87
2022/08/25 00:49:18;;;;;;;52.73;6.27;;;;;;;22.33;67.11;100271.41;5045416;28;20132;-88
2022/08/25 00:51:51;;;;;;;52.17;6.30;;;;;;;22.27;67.21;100260.66;5033657;28;20354;-86
2022/08/25 00:54:21;;;;;;;54.10;5.80;;;;;;;22.15;67.68;100249.75;5031987;28;20033;-88
2022/08/25 00:56:47;;;;;;;56.35;6.18;;;;;;;22.28;67.42;100265.84;5029850;28;20044;-86
2022/08/25 00:59:15;;;;;;;61.95;5.95;;;;;;;22.25;66.92;100262.81;4999277;28;20041;-88
2022/08/25 01:01:43;;;;;;;48.85;7.13;;;;;;;22.16;67.11;100242.34;5012696;28;20045;-89
2022/08/25 01:04:09;;;;;;;53.60;5.75;;;;;;;22.16;67.00;100240.44;5030840;28;20049;-88
2022/08/25 01:06:38;;;;;;;50.10;5.55;;;;;;;22.11;67.53;100232.97;5020040;28;20036;-87
2022/08/25 01:09:13;;;;;;;40.63;5.07;;;;;;;22.33;65.61;100252.25;5025165;28;20045;-87
2022/08/25 01:11:40;;;;;;;51.03;5.90;;;;;;;22.20;63.86;100221.63;5015774;28;20106;-88
2022/08/25 01:14:05;;;;;;;46.45;5.13;;;;;;;22.40;63.50;100254.00;5030470;28;20069;-88
2022/08/25 01:16:35;;;;;;;46.70;5.03;;;;;;;22.27;62.81;100230.53;5017132;28;20526;-87
2022/08/25 01:19:01;;;;;;;41.20;4.70;;;;;;;22.34;62.58;100236.66;5017118;28;20045;-89
2022/08/25 01:21:27;;;;;;;37.70;5.13;;;;;;;22.27;62.25;100206.72;5032725;28;20037;-88
2022/08/25 01:23:57;;;;;;;46.08;5.13;;;;;;;22.41;61.89;100211.84;5025204;28;20077;-88
2022/08/25 01:26:29;;;;;;;41.45;5.22;;;;;;;22.36;61.98;100198.91;5030374;28;20501;-88
2022/08/25 01:31:43;;;;;;;45.67;5.47;;;;;;;22.35;61.43;100180.81;5026110;28;20140;-88
2022/08/25 01:34:11;;;;;;;52.15;5.05;;;;;;;22.54;61.54;100201.34;5016734;28;20146;-87
2022/08/25 01:36:36;;;;;;;48.80;5.38;;;;;;;22.42;61.66;100189.69;5021412;28;20060;-87
2022/08/25 01:39:03;;;;;;;34.83;4.90;;;;;;;22.42;61.61;100192.41;5029094;28;20072;-87
2022/08/25 01:41:45;;;;;;;52.13;5.32;;;;;;;22.42;61.64;100192.41;5010460;28;20045;-88
2022/08/25 01:44:11;;;;;;;40.65;5.88;;;;;;;22.42;61.56;100186.94;5025849;28;20041;-88
2022/08/25 01:46:37;;;;;;;42.10;5.07;;;;;;;22.43;61.40;100191.34;5024992;28;20053;-87
2022/08/25 01:49:04;;;;;;;42.58;6.03;;;;;;;22.47;60.83;100187.00;5013761;28;20044;-87
2022/08/25 01:51:40;;;;;;;40.58;5.53;;;;;;;22.38;61.10;100179.47;5028013;28;20558;-88
2022/08/25 01:54:12;;;;;;;36.38;5.07;;;;;;;22.41;60.89;100184.47;5025330;28;20207;-89
2022/08/25 01:56:37;;;;;;;34.60;5.03;;;;;;;22.40;61.28;100189.09;5020647;28;20057;-88
2022/08/25 01:59:04;;;;;;;35.58;5.20;;;;;;;22.38;60.59;100177.56;5025810;28;20037;-86
2022/08/25 02:01:31;;;;;;;41.42;5.85;;;;;;;22.50;60.65;100194.75;5046128;28;20405;-87
2022/08/25 02:03:57;;;;;;;45.40;5.72;;;;;;;22.46;60.61;100171.66;5043007;28;20588;-88
2022/08/25 02:06:31;;;;;;;48.85;5.30;;;;;;;22.37;61.04;100159.47;5047956;28;20067;-87
2022/08/25 02:09:05;;;;;;;37.30;4.28;;;;;;;22.51;60.58;100165.44;5042062;28;20044;-86
2022/08/25 02:11:34;;;;;;;37.40;5.05;;;;;;;22.55;60.59;100172.06;5051459;28;20052;-89
2022/08/25 02:14:00;;;;;;;34.63;4.43;;;;;;;22.59;60.52;100180.59;5031785;28;20076;-87
2022/08/25 02:17:04;;;;;;;38.17;4.00;;;;;;;22.49;60.20;100165.69;5031101;28;20401;-88
2022/08/25 02:19:30;;;;;;;40.10;4.30;;;;;;;22.47;60.01;100150.56;5025761;28;20048;-86
2022/08/25 02:21:56;;;;;;;49.08;5.28;;;;;;;22.61;60.02;100172.97;5032435;28;20037;-87
2022/08/25 02:24:23;;;;;;;41.47;5.07;;;;;;;22.60;60.14;100179.53;5031653;28;20041;-89
2022/08/25 02:26:50;;;;;;;31.88;4.75;;;;;;;22.55;59.79;100169.34;5032101;28;20511;-87
2022/08/25 02:29:15;;;;;;;29.60;3.88;;;;;;;22.56;59.91;100176.47;5013384;28;20135;-89
2022/08/25 02:31:42;;;;;;;41.05;4.70;;;;;;;22.51;60.31;100160.78;5004974;28;20131;-89
2022/08/25 02:34:09;;;;;;;29.13;4.35;;;;;;;22.50;60.44;100167.34;5030378;28;20041;-88
2022/08/25 02:36:37;;;;;;;44.75;4.63;;;;;;;22.63;60.35;100168.88;5031228;28;20053;-87
2022/08/25 02:39:07;;;;;;;35.55;4.45;;;;;;;22.46;60.20;100133.31;5026276;28;20029;-88
2022/08/25 02:41:33;;;;;;;29.98;4.60;;;;;;;22.57;60.16;100158.09;5013728;28;20127;-87
2022/08/25 02:44:02;;;;;;;38.97;4.93;;;;;;;22.54;60.48;100141.09;5034521;28;20045;-88
2022/08/25 02:46:53;;;;;;;34.42;4.40;;;;;;;22.49;60.30;100165.69;5013785;28;20135;-88
2022/08/25 02:49:18;;;;;;;39.88;4.68;;;;;;;22.50;60.13;100150.91;5035410;28;20041;-87
2022/08/25 02:51:46;;;;;;;31.35;4.43;;;;;;;22.49;60.31;100159.38;5032508;28;20101;-88
2022/08/25 02:54:12;;;;;;;31.20;4.18;;;;;;;22.46;60.04;100146.19;5017272;28;20044;-89
2022/08/25 02:56:40;;;;;;;31.15;4.20;;;;;;;22.44;60.13;100138.22;5030615;28;20045;-88
2022/08/25 02:59:11;;;;;;;28.35;4.20;;;;;;;22.53;60.16;100155.06;5043697;28;20044;-87
2022/08/25 03:01:37;;;;;;;29.88;4.63;;;;;;;22.38;60.38;100157.56;5035247;28;20045;-86
2022/08/25 03:04:03;;;;;;;34.85;4.22;;;;;;;22.35;60.80;100158.91;5036101;28;20021;-87
2022/08/25 03:06:30;;;;;;;39.08;4.30;;;;;;;22.32;60.54;100151.19;5043423;28;20078;-91
2022/08/25 03:08:57;;;;;;;30.83;4.80;;;;;;;22.39;60.71;100179.22;5044282;28;20132;-89
2022/08/25 03:11:24;;;;;;;33.38;4.20;;;;;;;22.45;60.98;100180.97;5024454;28;20132;-90
2022/08/25 03:13:53;;;;;;;34.20;4.28;;;;;;;22.42;60.87;100181.47;5030742;28;20061;-90
2022/08/25 03:16:19;;;;;;;34.05;4.65;;;;;;;22.33;61.50;100200.22;5030680;28;20041;-91
2022/08/25 03:18:47;;;;;;;34.10;5.43;;;;;;;22.22;61.42;100184.72;5008923;28;20457;-90
2022/08/25 03:21:16;;;;;;;32.67;4.20;;;;;;;22.31;61.39;100209.75;5029833;28;20091;-90
2022/08/25 03:23:43;;;;;;;44.85;10.23;;;;;;;22.33;61.83;100213.09;5008410;28;20049;-87
2022/08/25 03:28:55;;;;;;;32.25;4.10;;;;;;;22.37;61.80;100227.13;5052211;28;20059;-89
2022/08/25 03:31:26;;;;;;;39.78;4.40;;;;;;;22.23;61.64;100204.72;5047223;28;20045;-89
2022/08/25 03:33:54;;;;;;;23.67;3.97;;;;;;;22.24;62.04;100203.63;5046995;28;20049;-90
2022/08/25 03:36:30;;;;;;;34.22;4.70;;;;;;;22.17;62.22;100189.25;5042670;28;20050;-89
2022/08/25 03:38:57;;;;;;;33.28;5.55;;;;;;;22.25;62.35;100213.50;5051733;28;20056;-90
2022/08/25 03:41:31;;;;;;;26.45;5.90;;;;;;;22.33;62.30;100221.28;5015152;28;20048;-90
2022/08/25 03:44:04;;;;;;;34.53;5.18;;;;;;;22.35;61.96;100227.34;5043556;28;20029;-90
2022/08/25 03:46:39;;;;;;;30.90;5.28;;;;;;;22.35;61.96;100230.09;5025544;28;20052;-89
2022/08/25 03:49:14;;;;;;;34.13;4.68;;;;;;;22.42;61.84;100213.50;5032772;28;20127;-90
2022/08/25 03:51:42;;;;;;;44.63;5.57;;;;;;;22.46;62.04;100214.66;5022996;28;20064;-88
2022/08/25 03:54:14;;;;;;;29.38;4.63;;;;;;;22.53;61.81;100221.63;5041725;28;20060;-89
2022/08/25 03:56:39;;;;;;;31.42;5.05;;;;;;;22.48;61.89;100207.84;5005400;28;20053;-88
2022/08/25 03:59:08;;;;;;;33.08;4.70;;;;;;;22.37;62.34;100200.56;5028344;28;20041;-91
2022/08/25 04:01:35;;;;;;;29.75;4.82;;;;;;;22.58;61.94;100214.56;5025184;28;20033;-92
2022/08/25 04:04:00;;;;;;;36.55;5.00;;;;;;;22.50;61.78;100202.97;5012228;28;20049;-90
2022/08/25 04:06:28;;;;;;;35.13;5.60;;;;;;;22.60;61.81;100205.00;5031618;28;20068;-90
2022/08/25 04:08:57;;;;;;;32.35;4.45;;;;;;;22.62;61.88;100213.81;5032272;28;20518;-89
2022/08/25 04:11:27;;;;;;;34.45;5.22;;;;;;;22.71;61.54;100222.41;5044518;28;20123;-90
2022/08/25 04:14:00;;;;;;;32.42;5.30;;;;;;;22.72;61.83;100207.66;5019687;28;20040;-89
2022/08/25 04:16:29;;;;;;;33.55;4.75;;;;;;;22.65;61.82;100207.00;5044275;28;20064;-88
2022/08/25 04:18:58;;;;;;;31.77;5.00;;;;;;;22.54;62.17;100208.75;5022034;28;20073;-88
2022/08/25 04:21:24;;;;;;;33.63;5.25;;;;;;;22.71;62.17;100220.53;5016407;28;20049;-89
2022/08/25 04:23:51;;;;;;;37.17;5.10;;;;;;;22.69;62.00;100203.50;5026775;28;20052;-89
2022/08/25 04:26:55;;;;;;;36.60;5.05;;;;;;;22.76;61.54;100203.34;5019085;28;20071;-88
2022/08/25 04:29:25;;;;;;;32.53;5.25;;;;;;;22.88;62.10;100220.47;5012958;28;20080;-89
2022/08/25 04:31:52;;;;;;;37.70;5.25;;;;;;;22.82;61.87;100202.31;5022419;28;20040;-90
2022/08/25 04:34:21;;;;;;;34.63;4.90;;;;;;;22.95;61.97;100210.16;4994231;28;20117;-91
2022/08/25 04:36:51;;;;;;;26.42;5.38;;;;;;;22.93;62.59;100206.84;5023920;28;20159;-88
2022/08/25 04:39:19;;;;;;;38.85;5.10;;;;;;;23.09;62.34;100201.59;5012262;28;20045;-90
2022/08/25 04:41:48;;;;;;;33.05;5.43;;;;;;;23.14;61.97;100194.25;5020275;28;20052;-90
2022/08/25 04:44:16;;;;;;;31.58;5.30;;;;;;;23.29;62.21;100206.50;5003452;28;20048;-90
2022/08/25 04:46:44;;;;;;;30.83;4.88;;;;;;;23.48;62.09;100210.53;5016697;28;20526;-89
2022/08/25 04:49:14;;;;;;;27.42;5.75;;;;;;;23.53;62.14;100212.53;5032814;28;20095;-89
2022/08/25 04:51:44;;;;;;;32.65;5.50;;;;;;;23.54;62.34;100208.69;5053171;28;20523;-89
2022/08/25 04:54:15;;;;;;;34.92;5.63;;;;;;;23.52;62.56;100202.66;5072847;28;20480;-89
2022/08/25 04:56:42;;;;;;;28.75;4.78;;;;;;;23.62;62.55;100186.28;5026898;28;20133;-88
2022/08/25 04:59:14;;;;;;;30.30;4.57;;;;;;;23.87;62.47;100193.97;5043548;28;20060;-89
2022/08/25 05:01:40;;;;;;;28.80;4.93;;;;;;;23.93;62.63;100195.69;5044825;28;20061;-89
2022/08/25 05:04:08;;;;;;;27.13;5.28;;;;;;;23.78;62.80;100163.41;5028670;28;20053;-88
2022/08/25 05:06:33;;;;;;;30.63;4.88;;;;;;;24.01;62.97;100181.47;5009220;28;20581;-90
2022/08/25 05:09:00;;;;;;;34.40;5.38;;;;;;;24.28;62.80;100185.22;5034735;28;20108;-90
2022/08/25 05:11:31;;;;;;;32.97;5.85;;;;;;;24.39;62.34;100182.28;5012910;28;20476;-90
2022/08/25 05:13:57;;;;;;;36.70;5.97;;;;;;;24.50;62.85;100177.75;5003286;28;20052;-90
2022/08/25 05:16:25;;;;;;;25.67;5.30;;;;;;;24.68;62.31;100178.38;5014026;28;20071;-87
2022/08/25 05:18:54;;;;;;;23.13;5.40;;;;;;;24.71;62.29;100183.38;5020776;28;20045;-89
2022/08/25 05:21:25;;;;;;;25.27;5.28;;;;;;;24.81;62.29;100183.41;5034198;28;20045;-84
2022/08/25 05:23:57;;;;;;;37.08;5.70;;;;;;;25.00;62.02;100178.28;5025475;28;20140;-86
2022/08/25 05:26:25;;;;;;;30.77;5.10;;;;;;;25.09;61.97;100178.59;5049393;28;20118;-86
2022/08/25 05:28:56;;;;;;;28.27;5.90;;;;;;;25.04;62.56;100173.91;5026264;28;20033;-86
2022/08/25 05:31:23;;;;;;;37.15;6.05;;;;;;;25.09;62.53;100167.59;5028224;28;20102;-85
2022/08/25 05:33:50;;;;;;;20.92;5.63;;;;;;;25.18;62.70;100171.50;5032822;28;20049;-85
2022/08/25 05:36:20;;;;;;;37.05;5.07;;;;;;;25.19;62.37;100170.41;5010207;28;20424;-87
2022/08/25 05:38:48;;;;;;;28.58;5.13;;;;;;;25.26;62.45;100179.22;5003607;28;20038;-87
2022/08/25 05:41:19;;;;;;;29.35;5.82;;;;;;;25.37;62.32;100180.09;5030787;28;20037;-87
2022/08/25 05:43:46;;;;;;;30.00;5.22;;;;;;;25.32;62.44;100178.16;5044224;28;20046;-86
2022/08/25 05:46:15;;;;;;;30.73;5.55;;;;;;;25.53;62.00;100194.72;5027898;28;20036;-86
2022/08/25 05:48:40;;;;;;;29.77;5.32;;;;;;;25.58;61.44;100169.97;5027536;28;20064;-88
2022/08/25 05:51:09;;;;;;;41.55;5.70;;;;;;;25.50;61.71;100171.34;4991996;28;20473;-85
2022/08/25 05:53:35;;;;;;;39.03;5.68;;;;;;;25.74;61.80;100195.59;5017157;28;20072;-87
2022/08/25 05:56:01;;;;;;;43.53;5.97;;;;;;;25.97;61.19;100186.00;5032623;28;20041;-87
2022/08/25 05:58:28;;;;;;;30.52;5.18;;;;;;;26.03;60.67;100176.63;5035118;28;20194;-87
2022/08/25 06:00:54;;;;;;;29.98;5.82;;;;;;;26.19;60.42;100178.28;5028938;28;20076;-87
2022/08/25 06:03:22;;;;;;;34.88;5.45;;;;;;;26.46;59.88;100197.28;5035477;28;20029;-87
2022/08/25 06:05:48;;;;;;;22.50;5.30;;;;;;;26.61;59.43;100199.19;5034046;28;20119;-88
2022/08/25 06:08:14;;;;;;;27.98;4.80;;;;;;;26.82;58.41;100194.47;5012300;28;20519;-87
2022/08/25 06:10:42;;;;;;;34.38;5.18;;;;;;;26.95;57.92;100182.03;5013312;28;21595;-88
2022/08/25 06:13:07;;;;;;;25.02;4.57;;;;;;;27.25;57.42;100185.78;5031074;28;20053;-86
2022/08/25 06:15:33;;;;;;;32.95;5.60;;;;;;;27.38;57.01;100189.84;5048204;28;20041;-87
2022/08/25 06:18:01;;;;;;;30.73;5.07;;;;;;;27.81;56.14;100173.56;5015884;28;20075;-84
2022/08/25 06:20:28;;;;;;;24.75;5.22;;;;;;;28.22;55.51;100198.97;5037272;28;20086;-86
2022/08/25 06:22:53;;;;;;;21.08;4.85;;;;;;;28.52;55.02;100197.88;5060783;28;20112;-85
2022/08/25 06:25:20;;;;;;;18.10;4.70;;;;;;;28.78;53.87;100194.84;5029543;28;20064;-84
2022/08/25 06:27:46;;;;;;;24.20;4.60;;;;;;;29.08;53.68;100202.00;5000566;28;20060;-85
2022/08/25 06:30:14;;;;;;;20.40;4.75;;;;;;;29.26;53.06;100205.91;5013758;28;20049;-84
2022/08/25 06:32:40;;;;;;;21.00;4.32;;;;;;;29.54;52.52;100206.91;4997957;28;20057;-85
2022/08/25 06:35:08;;;;;;;28.58;4.65;;;;;;;29.72;51.97;100190.63;5042463;28;20409;-86
2022/08/25 06:37:34;;;;;;;21.58;4.45;;;;;;;29.84;51.87;100172.41;5034197;28;20040;-87
2022/08/25 06:39:59;;;;;;;27.52;5.00;;;;;;;30.17;51.13;100196.53;5000422;28;20166;-84
2022/08/25 06:42:26;;;;;;;17.52;4.13;;;;;;;30.19;51.20;100186.78;5023184;28;20029;-85
2022/08/25 06:44:51;;;;;;;28.90;4.60;;;;;;;30.28;51.35;100182.22;5028885;28;20484;-84
2022/08/25 06:47:17;;;;;;;23.92;4.75;;;;;;;30.40;51.10;100183.69;5033683;28;20076;-88
2022/08/25 06:49:43;;;;;;;21.23;4.20;;;;;;;30.34;50.23;100169.09;5028448;28;20135;-86
2022/08/25 06:52:09;;;;;;;20.27;4.00;;;;;;;30.44;50.25;100201.38;5033672;28;20128;-86
2022/08/25 06:54:35;;;;;;;19.35;3.83;;;;;;;30.31;50.35;100197.44;5049859;28;20382;-86
2022/08/25 06:57:00;;;;;;;17.52;4.20;;;;;;;30.28;50.59;100187.78;5033196;28;20036;-85
2022/08/25 06:59:26;;;;;;;25.90;3.80;;;;;;;30.62;49.74;100181.03;5032975;28;20534;-86
2022/08/25 07:01:52;;;;;;;30.48;3.97;;;;;;;30.75;49.11;100184.97;5014456;28;20114;-85
2022/08/25 07:04:17;;;;;;;29.92;4.25;;;;;;;30.75;48.98;100190.53;5033054;28;20586;-85
2022/08/25 07:06:49;;;;;;;19.20;4.28;;;;;;;30.45;49.60;100165.00;5016830;28;20036;-85
2022/08/25 07:09:14;;;;;;;22.10;4.35;;;;;;;30.54;49.60;100172.63;5015944;28;20484;-86
2022/08/25 07:11:43;;;;;;;23.65;4.10;;;;;;;30.53;49.41;100176.50;5032128;28;20044;-85
2022/08/25 07:14:10;;;;;;;18.23;4.00;;;;;;;30.74;49.18;100191.63;5049751;28;20049;-86
2022/08/25 07:16:36;;;;;;;18.65;3.80;;;;;;;30.52;49.37;100197.06;5032145;28;20033;-86
2022/08/25 07:19:02;;;;;;;23.38;4.60;;;;;;;30.49;50.00;100193.78;5031615;28;20056;-86
2022/08/25 07:21:29;;;;;;;24.90;4.35;;;;;;;30.45;49.60;100186.38;5026721;28;20076;-88
2022/08/25 07:23:57;;;;;;;20.13;4.00;;;;;;;30.69;49.38;100200.06;5031522;28;20072;-86
2022/08/25 07:26:25;;;;;;;20.75;3.92;;;;;;;30.83;48.50;100200.88;5032568;28;20051;-86
2022/08/25 07:28:50;;;;;;;17.23;3.80;;;;;;;30.72;48.17;100174.50;5013122;28;20044;-86
2022/08/25 07:31:16;;;;;;;18.75;3.85;;;;;;;30.66;48.58;100182.09;5031410;28;20127;-86
2022/08/25 07:35:14;;;;;;;23.85;3.72;;;;;;;30.64;48.92;100178.78;5031537;28;20075;-85
2022/08/25 07:36:28;;;;;;;19.55;3.83;;;;;;;30.81;48.73;100183.75;5047659;28;20067;-87
2022/08/25 07:38:54;;;;;;;16.20;3.95;;;;;;;30.90;47.85;100179.13;5052789;28;20040;-87
2022/08/25 07:41:19;;;;;;;17.08;3.67;;;;;;;31.31;47.57;100194.13;5036672;28;20044;-86
2022/08/25 07:43:46;;;;;;;19.17;3.83;;;;;;;31.33;47.42;100194.63;5018959;28;20041;-87
2022/08/25 07:46:14;;;;;;;14.95;3.67;;;;;;;31.43;46.29;100199.16;5053390;28;20048;-88
2022/08/25 07:48:39;;;;;;;24.30;4.15;;;;;;;31.56;46.45;100189.97;5016389;28;20113;-88
2022/08/25 07:51:10;;;;;;;18.88;3.40;;;;;;;31.75;45.68;100195.38;5017256;28;20126;-87
2022/08/25 07:53:36;;;;;;;21.38;4.00;;;;;;;31.98;45.37;100190.66;5024246;28;20071;-86
2022/08/25 07:56:19;;;;;;;21.48;3.78;;;;;;;32.27;44.74;100194.97;5018489;28;20068;-87
2022/08/25 07:58:46;;;;;;;15.95;3.97;;;;;;;32.76;43.70;100187.56;5035245;28;20041;-87
2022/08/25 08:01:16;;;;;;;25.60;3.50;;;;;;;33.17;40.68;100178.03;5033800;28;20041;-87
2022/08/25 08:03:41;;;;;;;18.00;3.72;;;;;;;33.41;40.57;100189.56;5018850;28;20462;-87
2022/08/25 08:06:08;;;;;;;16.02;3.53;;;;;;;33.35;39.57;100149.06;5011389;28;20057;-86
2022/08/25 08:08:38;;;;;;;18.17;3.47;;;;;;;33.64;39.01;100175.47;5034869;28;20111;-86
2022/08/25 08:11:04;;;;;;;18.40;3.50;;;;;;;33.88;38.68;100177.78;5027018;28;20045;-88
2022/08/25 08:13:31;;;;;;;17.70;3.78;;;;;;;33.93;37.89;100154.50;5049383;28;20036;-87
2022/08/25 08:16:02;;;;;;;24.65;3.70;;;;;;;34.47;36.80;100168.81;5031754;28;20037;-85
2022/08/25 08:18:27;;;;;;;18.75;3.78;;;;;;;34.78;35.54;100151.00;5031495;28;20279;-85
2022/08/25 08:20:54;;;;;;;13.55;2.92;;;;;;;34.87;35.71;100160.13;5034601;28;20064;-89
2022/08/25 08:23:26;;;;;;;16.10;3.63;;;;;;;35.04;35.32;100148.84;5032594;28;20049;-88
2022/08/25 08:25:52;;;;;;;21.80;3.50;;;;;;;35.44;34.81;100134.47;5018367;28;20496;-86
2022/08/25 08:28:17;;;;;;;22.70;3.95;;;;;;;35.56;34.75;100139.28;5031233;28;20044;-86
2022/08/25 08:30:43;;;;;;;20.60;4.03;;;;;;;35.92;33.73;100144.25;5013442;28;20469;-90
2022/08/25 08:33:12;;;;;;;14.35;3.17;;;;;;;35.59;33.71;100151.75;5031828;28;20043;-90
2022/08/25 08:35:43;;;;;;;17.65;3.70;;;;;;;35.91;33.18;100144.59;5034296;28;20049;-87
2022/08/25 08:38:09;;;;;;;17.92;4.47;;;;;;;36.27;32.97;100149.53;5035123;28;20045;-86
2022/08/25 08:42:15;;;;;;;21.70;3.55;;;;;;;36.84;32.12;100152.63;5034175;28;20077;-88
2022/08/25 08:43:30;;;;;;;14.05;3.60;;;;;;;37.97;30.48;100148.84;5025668;28;20144;-87
2022/08/25 08:45:57;;;;;;;25.23;4.00;;;;;;;38.66;29.42;100157.13;5035633;28;20049;-88
2022/08/25 08:48:47;;;;;;;18.40;3.47;;;;;;;39.67;27.67;100158.25;5032676;28;20489;-88
2022/08/25 08:51:25;;;;;;;19.35;3.78;;;;;;;40.56;26.15;100140.66;5050538;28;20041;-88
2022/08/25 08:53:54;;;;;;;18.80;3.80;;;;;;;40.64;24.75;100142.38;5000163;28;20045;-87
2022/08/25 08:56:40;;;;;;;16.48;3.38;;;;;;;41.31;24.04;100147.47;5031021;28;20033;-87
2022/08/25 08:59:16;;;;;;;21.33;3.90;;;;;;;41.75;23.83;100150.47;5039914;28;20523;-86
2022/08/25 09:01:57;;;;;;;23.40;3.88;;;;;;;40.82;25.12;100137.88;5031960;28;20041;-87
2022/08/25 09:04:52;;;;;;;23.23;4.07;;;;;;;40.49;25.53;100142.16;5051564;28;20060;-87
2022/08/25 09:07:23;;;;;;;34.28;4.38;;;;;;;40.14;25.68;100130.25;5035221;28;20044;-88
2022/08/25 09:09:50;;;;;;;19.85;3.80;;;;;;;40.58;24.07;100129.78;5017619;28;21092;-88
2022/08/25 09:12:40;;;;;;;14.13;3.50;;;;;;;40.21;24.18;100141.63;5045283;28;20503;-87
2022/08/25 09:18:50;;;;;;;20.77;3.53;;;;;;;40.39;23.86;100120.25;4957486;29;20038;-89
2022/08/25 09:21:47;;;;;;;27.05;3.70;;;;;;;40.59;23.31;100118.16;4981582;28;20049;-87
2022/08/25 09:24:23;;;;;;;19.77;3.55;;;;;;;40.61;23.38;100120.59;5017265;28;20475;-85
2022/08/25 09:27:24;;;;;;;20.38;4.28;;;;;;;40.90;23.15;100108.59;5044294;28;20091;-85
2022/08/25 09:30:06;;;;;;;22.83;3.80;;;;;;;41.61;22.04;100113.63;5054505;28;20043;-87
2022/08/25 09:32:42;;;;;;;18.30;3.60;;;;;;;41.72;21.63;100117.34;5051478;28;20029;-86
2022/08/25 09:35:21;;;;;;;18.13;3.90;;;;;;;42.07;21.33;100113.31;5002334;28;20049;-86
2022/08/25 09:38:08;;;;;;;16.02;3.70;;;;;;;43.00;20.03;100110.47;5022710;28;20040;-86
2022/08/25 09:40:41;;;;;;;20.17;3.90;;;;;;;43.52;19.57;100107.47;5052043;28;20447;-86
2022/08/25 09:43:30;;;;;;;22.27;4.07;;;;;;;44.30;18.72;100111.72;5032174;28;20511;-87
2022/08/25 09:46:16;;;;;;;22.80;3.95;;;;;;;44.17;18.21;100122.66;5014250;28;20543;-89
2022/08/25 09:48:54;;;;;;;24.40;4.07;;;;;;;44.81;17.50;100119.81;5031621;28;20396;-87
2022/08/25 09:51:32;;;;;;;21.58;3.90;;;;;;;45.40;16.38;100121.28;5047474;28;20033;-89
2022/08/25 09:54:19;;;;;;;22.45;4.25;;;;;;;44.77;16.88;100119.00;5022440;28;20063;-88
2022/08/25 09:56:52;;;;;;;28.42;4.07;;;;;;;44.21;17.78;100121.44;5049214;28;20114;-87
2022/08/25 09:59:19;;;;;;;32.08;4.20;;;;;;;43.27;16.78;100105.38;5053117;28;20036;-90
2022/08/25 10:01:50;;;;;;;23.10;4.05;;;;;;;42.72;17.60;100111.06;5025081;28;20477;-88
2022/08/25 10:04:28;;;;;;;22.88;3.90;;;;;;;41.75;19.09;100122.25;5048258;28;20052;-88
2022/08/25 10:06:54;;;;;;;20.42;4.05;;;;;;;41.04;20.01;100105.16;5027324;28;20042;-87
2022/08/25 10:09:33;;;;;;;23.13;4.35;;;;;;;41.39;19.61;100098.41;5042503;28;20041;-86
2022/08/25 10:12:01;;;;;;;26.83;4.38;;;;;;;40.03;20.95;100091.44;5020614;28;20068;-87
2022/08/25 10:14:31;;;;;;;26.23;4.53;;;;;;;39.71;21.10;100090.81;5013287;28;20471;-89
2022/08/25 10:17:14;;;;;;;30.15;4.30;;;;;;;39.24;21.88;100103.91;5031053;28;20052;-89
2022/08/25 10:19:40;;;;;;;27.15;4.18;;;;;;;38.46;22.26;100099.22;4999812;28;20132;-86
2022/08/25 10:22:11;;;;;;;33.10;4.63;;;;;;;38.18;23.19;100095.31;4999568;28;20479;-86
2022/08/25 10:24:39;;;;;;;26.85;4.30;;;;;;;37.98;24.25;100114.03;5050518;28;20508;-86
2022/08/25 10:27:23;;;;;;;27.73;4.28;;;;;;;38.22;24.11;100118.69;5030773;28;20033;-87
2022/08/25 10:30:07;;;;;;;20.17;4.00;;;;;;;37.88;23.73;100131.34;5042274;28;20037;-86
2022/08/25 10:32:46;;;;;;;28.13;4.18;;;;;;;38.60;22.88;100133.28;5041120;28;20037;-86
2022/08/25 10:35:25;;;;;;;27.92;4.47;;;;;;;39.35;21.80;100118.19;5014287;28;20033;-86
2022/08/25 10:38:28;;;;;;;21.20;4.35;;;;;;;39.49;22.31;100130.94;5021451;28;20047;-84
2022/08/25 10:40:56;;;;;;;28.55;4.68;;;;;;;39.25;22.58;100124.41;5052969;28;20068;-87
2022/08/25 10:43:55;;;;;;;29.10;4.78;;;;;;;38.84;22.93;100144.34;5040327;28;20505;-85
2022/08/25 10:46:52;;;;;;;31.95;4.88;;;;;;;38.76;23.37;100139.72;5050106;28;20045;-86
2022/08/25 10:49:30;;;;;;;29.20;5.20;;;;;;;39.00;23.14;100140.69;5011611;28;20185;-87
2022/08/25 10:52:04;;;;;;;34.70;4.85;;;;;;;38.98;23.18;100143.06;5015740;28;20123;-86
2022/08/25 10:55:04;;;;;;;33.20;4.55;;;;;;;39.07;21.87;100140.84;4997822;28;20480;-85
2022/08/25 10:57:44;;;;;;;32.83;5.05;;;;;;;37.72;24.04;100148.16;5010413;28;20045;-88
2022/08/25 11:00:27;;;;;;;39.30;5.45;;;;;;;37.71;24.04;100151.31;5049664;28;20036;-87
2022/08/25 11:03:17;;;;;;;38.30;5.47;;;;;;;37.50;23.89;100138.28;5027298;28;20106;-84
2022/08/25 11:05:45;;;;;;;27.75;4.50;;;;;;;37.04;25.12;100137.66;5031250;28;20110;-84
2022/08/25 11:08:42;;;;;;;27.08;4.50;;;;;;;36.85;25.34;100137.44;5029118;28;20471;-84
2022/08/25 11:11:32;;;;;;;27.42;4.47;;;;;;;36.53;24.67;100138.00;5030959;28;20419;-87
2022/08/25 11:14:10;;;;;;;44.25;5.20;;;;;;;35.98;26.13;100142.06;5045897;28;20136;-85
2022/08/25 11:16:39;;;;;;;43.78;5.10;;;;;;;35.29;27.42;100137.88;5010032;28;20478;-84
2022/08/25 11:19:10;;;;;;;30.30;4.50;;;;;;;35.16;27.85;100136.97;5047064;28;20116;-84
2022/08/25 11:21:51;;;;;;;44.35;4.88;;;;;;;34.32;29.12;100144.25;5026001;28;20145;-85
2022/08/25 11:24:19;;;;;;;33.45;4.55;;;;;;;33.99;30.24;100137.25;5035414;28;20451;-85
2022/08/25 11:26:48;;;;;;;40.35;5.20;;;;;;;33.79;30.14;100133.19;5053888;28;20037;-87
2022/08/25 11:29:15;;;;;;;43.95;5.00;;;;;;;33.40;29.16;100143.31;5020961;28;20048;-84
2022/08/25 11:31:43;;;;;;;39.78;5.07;;;;;;;33.29;29.03;100143.97;5019763;28;20115;-87
2022/08/25 11:34:10;;;;;;;46.60;4.88;;;;;;;32.82;28.66;100113.88;5020432;28;20052;-87
2022/08/25 11:36:39;;;;;;;46.40;5.00;;;;;;;33.03;28.38;100124.41;5005190;28;20121;-86
2022/08/25 11:39:15;;;;;;;31.23;5.22;;;;;;;32.92;29.06;100143.38;5019726;28;20025;-89
2022/08/25 11:42:11;;;;;;;26.02;4.32;;;;;;;32.86;30.05;100122.41;5023718;28;20040;-87
2022/08/25 11:45:12;;;;;;;35.63;4.60;;;;;;;32.77;30.02;100134.31;5036107;28;20076;-88